sensor_id;sensor_type;location;lat;lon;timestamp;temperature;humidity
47090;DHT22;32840;52.516;13.294;2023-11-21T00:02:04;9.40;99.90
47090;DHT22;32840;52.516;13.294;2023-11-21T00:04:50;9.20;99.90
47090;DHT22;32840;52.516;13.294;2023-11-21T00:07:34;9.20;99.90
47090;DHT22;32840;52.516;13.294;2023-11-21T00:10:19;9.10;99.90
47090;DHT22;32840;52.516;13.294;2023-11-21T00:13:04;9.10;99.90
47090;DHT22;32840;52.516;13.294;2023-11-21T00:15:49;9.00;99.90
47090;DHT22;32840;52.516;13.294;2023-11-21T00:18:34;9.10;99.90
47090;DHT22;32840;52.516;13.294;2023-11-21T00:21:19;9.00;99.90
47090;DHT22;32840;52.516;13.294;2023-11-21T00:24:04;9.00;99.90
47090;DHT22;32840;52.516;13.294;2023-11-21T00:26:49;9.10;99.90
47090;DHT22;32840;52.516;13.294;2023-11-21T00:29:34;9.00;99.90
47090;DHT22;32840;52.516;13.294;2023-11-21T00:32:19;8.90;99.90
47090;DHT22;32840;52.516;13.294;2023-11-21T00:35:04;8.90;99.90
47090;DHT22;32840;52.516;13.294;2023-11-21T00:37:50;9.00;99.90
47090;DHT22;32840;52.516;13.294;2023-11-21T00:40:35;9.00;99.90
47090;DHT22;32840;52.516;13.294;2023-11-21T00:43:22;9.00;99.90
47090;DHT22;32840;52.516;13.294;2023-11-21T00:46:07;9.00;99.90
47090;DHT22;32840;52.516;13.294;2023-11-21T00:48:52;8.90;99.90
47090;DHT22;32840;52.516;13.294;2023-11-21T00:51:38;9.00;99.90
47090;DHT22;32840;52.516;13.294;2023-11-21T00:54:24;9.10;99.90
47090;DHT22;32840;52.516;13.294;2023-11-21T00:57:09;9.10;99.90
47090;DHT22;32840;52.516;13.294;2023-11-21T00:59:53;8.90;99.90
47090;DHT22;32840;52.516;13.294;2023-11-21T01:02:39;9.00;99.90
47090;DHT22;32840;52.516;13.294;2023-11-21T01:05:24;8.80;99.90
47090;DHT22;32840;52.516;13.294;2023-11-21T01:08:09;8.80;99.90
47090;DHT22;32840;52.516;13.294;2023-11-21T01:10:53;8.80;99.90
47090;DHT22;32840;52.516;13.294;2023-11-21T01:13:39;8.70;99.90
47090;DHT22;32840;52.516;13.294;2023-11-21T01:16:25;8.80;99.90
47090;DHT22;32840;52.516;13.294;2023-11-21T01:19:10;8.90;99.90
47090;DHT22;32840;52.516;13.294;2023-11-21T01:21:55;8.80;99.90
47090;DHT22;32840;52.516;13.294;2023-11-21T01:24:41;8.80;99.90
47090;DHT22;32840;52.516;13.294;2023-11-21T01:27:25;8.80;99.90
47090;DHT22;32840;52.516;13.294;2023-11-21T01:30:13;8.90;99.90
47090;DHT22;32840;52.516;13.294;2023-11-21T01:32:58;9.00;99.90
47090;DHT22;32840;52.516;13.294;2023-11-21T01:35:44;8.70;99.90
47090;DHT22;32840;52.516;13.294;2023-11-21T01:38:30;8.60;99.90
47090;DHT22;32840;52.516;13.294;2023-11-21T01:41:16;8.50;99.90
47090;DHT22;32840;52.516;13.294;2023-11-21T01:44:01;8.60;99.90
47090;DHT22;32840;52.516;13.294;2023-11-21T01:46:47;8.60;99.90
47090;DHT22;32840;52.516;13.294;2023-11-21T01:49:33;8.50;99.90
47090;DHT22;32840;52.516;13.294;2023-11-21T01:52:18;8.50;99.90
47090;DHT22;32840;52.516;13.294;2023-11-21T01:55:06;8.60;99.90
47090;DHT22;32840;52.516;13.294;2023-11-21T01:57:54;8.40;99.90
47090;DHT22;32840;52.516;13.294;2023-11-21T02:00:39;8.40;99.90
47090;DHT22;32840;52.516;13.294;2023-11-21T02:03:24;8.30;99.90
47090;DHT22;32840;52.516;13.294;2023-11-21T02:06:08;8.20;99.90
47090;DHT22;32840;52.516;13.294;2023-11-21T02:08:53;8.20;99.90
47090;DHT22;32840;52.516;13.294;2023-11-21T02:11:38;8.20;99.90
47090;DHT22;32840;52.516;13.294;2023-11-21T02:14:28;8.20;99.90
47090;DHT22;32840;52.516;13.294;2023-11-21T02:17:13;8.30;99.90
47090;DHT22;32840;52.516;13.294;2023-11-21T02:19:58;8.20;99.90
47090;DHT22;32840;52.516;13.294;2023-11-21T02:22:51;8.20;99.90
47090;DHT22;32840;52.516;13.294;2023-11-21T02:25:42;8.20;99.90
47090;DHT22;32840;52.516;13.294;2023-11-21T02:28:26;8.30;99.90
47090;DHT22;32840;52.516;13.294;2023-11-21T02:31:11;8.20;99.90
47090;DHT22;32840;52.516;13.294;2023-11-21T02:33:57;8.20;99.90
47090;DHT22;32840;52.516;13.294;2023-11-21T02:36:43;8.10;99.90
47090;DHT22;32840;52.516;13.294;2023-11-21T02:39:27;8.10;99.90
47090;DHT22;32840;52.516;13.294;2023-11-21T02:42:12;8.10;99.90
47090;DHT22;32840;52.516;13.294;2023-11-21T02:44:57;8.00;99.90
47090;DHT22;32840;52.516;13.294;2023-11-21T02:47:44;8.10;99.90
47090;DHT22;32840;52.516;13.294;2023-11-21T02:50:30;8.10;99.90
47090;DHT22;32840;52.516;13.294;2023-11-21T02:53:15;8.10;99.90
47090;DHT22;32840;52.516;13.294;2023-11-21T02:56:00;8.10;99.90
47090;DHT22;32840;52.516;13.294;2023-11-21T02:58:46;8.10;99.90
47090;DHT22;32840;52.516;13.294;2023-11-21T03:01:31;8.00;99.90
47090;DHT22;32840;52.516;13.294;2023-11-21T03:04:16;8.00;99.90
47090;DHT22;32840;52.516;13.294;2023-11-21T03:07:03;8.10;99.90
47090;DHT22;32840;52.516;13.294;2023-11-21T03:09:49;8.00;99.90
47090;DHT22;32840;52.516;13.294;2023-11-21T03:12:35;8.00;99.90
47090;DHT22;32840;52.516;13.294;2023-11-21T03:15:19;7.90;99.90
47090;DHT22;32840;52.516;13.294;2023-11-21T03:18:04;7.90;99.90
47090;DHT22;32840;52.516;13.294;2023-11-21T03:20:49;7.90;99.90
47090;DHT22;32840;52.516;13.294;2023-11-21T03:23:35;7.80;99.90
47090;DHT22;32840;52.516;13.294;2023-11-21T03:26:20;7.80;99.90
47090;DHT22;32840;52.516;13.294;2023-11-21T03:29:05;7.90;99.90
47090;DHT22;32840;52.516;13.294;2023-11-21T03:31:51;7.80;99.90
47090;DHT22;32840;52.516;13.294;2023-11-21T03:34:49;7.70;99.90
47090;DHT22;32840;52.516;13.294;2023-11-21T03:37:37;7.80;99.90
47090;DHT22;32840;52.516;13.294;2023-11-21T03:40:25;7.90;99.90
47090;DHT22;32840;52.516;13.294;2023-11-21T03:43:10;8.00;99.90
47090;DHT22;32840;52.516;13.294;2023-11-21T03:45:55;7.90;99.90
47090;DHT22;32840;52.516;13.294;2023-11-21T03:48:40;7.90;99.90
47090;DHT22;32840;52.516;13.294;2023-11-21T03:51:25;7.80;99.90
47090;DHT22;32840;52.516;13.294;2023-11-21T03:54:10;7.80;99.90
47090;DHT22;32840;52.516;13.294;2023-11-21T03:56:54;7.70;99.90
47090;DHT22;32840;52.516;13.294;2023-11-21T03:59:40;7.70;99.90
47090;DHT22;32840;52.516;13.294;2023-11-21T04:02:26;7.80;99.90
47090;DHT22;32840;52.516;13.294;2023-11-21T04:05:13;7.80;99.90
47090;DHT22;32840;52.516;13.294;2023-11-21T04:07:57;7.80;99.90
47090;DHT22;32840;52.516;13.294;2023-11-21T04:10:43;7.70;99.90
47090;DHT22;32840;52.516;13.294;2023-11-21T04:13:28;7.80;99.90
47090;DHT22;32840;52.516;13.294;2023-11-21T04:16:12;7.70;99.90
47090;DHT22;32840;52.516;13.294;2023-11-21T04:18:57;7.60;99.90
47090;DHT22;32840;52.516;13.294;2023-11-21T04:21:43;7.70;99.90
47090;DHT22;32840;52.516;13.294;2023-11-21T04:24:27;7.70;99.90
47090;DHT22;32840;52.516;13.294;2023-11-21T04:27:12;7.60;99.90
47090;DHT22;32840;52.516;13.294;2023-11-21T04:29:59;7.60;99.90
47090;DHT22;32840;52.516;13.294;2023-11-21T04:32:44;7.70;99.90
47090;DHT22;32840;52.516;13.294;2023-11-21T04:35:29;7.70;99.90
47090;DHT22;32840;52.516;13.294;2023-11-21T04:38:14;7.70;99.90
47090;DHT22;32840;52.516;13.294;2023-11-21T04:40:59;7.60;99.90
47090;DHT22;32840;52.516;13.294;2023-11-21T04:43:43;7.60;99.90
47090;DHT22;32840;52.516;13.294;2023-11-21T04:46:28;7.50;99.90
47090;DHT22;32840;52.516;13.294;2023-11-21T04:49:14;7.40;99.90
47090;DHT22;32840;52.516;13.294;2023-11-21T04:51:59;7.40;99.90
47090;DHT22;32840;52.516;13.294;2023-11-21T04:54:43;7.40;99.90
47090;DHT22;32840;52.516;13.294;2023-11-21T04:57:28;7.40;99.90
47090;DHT22;32840;52.516;13.294;2023-11-21T05:00:13;7.40;99.90
47090;DHT22;32840;52.516;13.294;2023-11-21T05:02:59;7.40;99.90
47090;DHT22;32840;52.516;13.294;2023-11-21T05:05:45;7.50;99.90
47090;DHT22;32840;52.516;13.294;2023-11-21T05:08:30;7.50;99.90
47090;DHT22;32840;52.516;13.294;2023-11-21T05:11:26;7.30;99.90
47090;DHT22;32840;52.516;13.294;2023-11-21T05:14:11;7.40;99.90
47090;DHT22;32840;52.516;13.294;2023-11-21T05:16:55;7.30;99.90
47090;DHT22;32840;52.516;13.294;2023-11-21T05:19:40;7.30;99.90
47090;DHT22;32840;52.516;13.294;2023-11-21T05:22:25;7.30;99.90
47090;DHT22;32840;52.516;13.294;2023-11-21T05:25:13;7.40;99.90
47090;DHT22;32840;52.516;13.294;2023-11-21T05:27:58;7.40;99.90
47090;DHT22;32840;52.516;13.294;2023-11-21T05:30:45;7.40;99.90
47090;DHT22;32840;52.516;13.294;2023-11-21T05:33:30;7.40;99.90
47090;DHT22;32840;52.516;13.294;2023-11-21T05:36:17;7.30;99.90
47090;DHT22;32840;52.516;13.294;2023-11-21T05:39:02;7.30;99.90
47090;DHT22;32840;52.516;13.294;2023-11-21T05:41:49;7.30;99.90
47090;DHT22;32840;52.516;13.294;2023-11-21T05:44:35;7.40;99.90
47090;DHT22;32840;52.516;13.294;2023-11-21T05:47:20;7.40;99.90
47090;DHT22;32840;52.516;13.294;2023-11-21T05:50:10;7.40;99.90
47090;DHT22;32840;52.516;13.294;2023-11-21T05:52:57;7.30;99.90
47090;DHT22;32840;52.516;13.294;2023-11-21T05:55:44;7.30;99.90
47090;DHT22;32840;52.516;13.294;2023-11-21T05:58:29;7.10;99.90
47090;DHT22;32840;52.516;13.294;2023-11-21T06:01:14;7.10;99.90
47090;DHT22;32840;52.516;13.294;2023-11-21T06:03:59;7.10;99.90
47090;DHT22;32840;52.516;13.294;2023-11-21T06:06:45;7.00;99.90
47090;DHT22;32840;52.516;13.294;2023-11-21T06:09:29;7.10;99.90
47090;DHT22;32840;52.516;13.294;2023-11-21T06:12:14;6.90;99.90
47090;DHT22;32840;52.516;13.294;2023-11-21T06:15:00;6.90;99.90
47090;DHT22;32840;52.516;13.294;2023-11-21T06:17:45;6.90;99.90
47090;DHT22;32840;52.516;13.294;2023-11-21T06:20:34;6.90;99.90
47090;DHT22;32840;52.516;13.294;2023-11-21T06:23:21;7.00;99.90
47090;DHT22;32840;52.516;13.294;2023-11-21T06:26:06;7.00;99.90
47090;DHT22;32840;52.516;13.294;2023-11-21T06:28:55;7.00;99.90
47090;DHT22;32840;52.516;13.294;2023-11-21T06:31:41;6.90;99.90
47090;DHT22;32840;52.516;13.294;2023-11-21T06:34:26;7.00;99.90
47090;DHT22;32840;52.516;13.294;2023-11-21T06:37:12;7.10;99.90
47090;DHT22;32840;52.516;13.294;2023-11-21T06:39:58;7.00;99.90
47090;DHT22;32840;52.516;13.294;2023-11-21T06:42:43;7.00;99.90
47090;DHT22;32840;52.516;13.294;2023-11-21T06:45:28;7.00;99.90
47090;DHT22;32840;52.516;13.294;2023-11-21T06:48:13;7.10;99.90
47090;DHT22;32840;52.516;13.294;2023-11-21T06:50:58;7.00;99.90
47090;DHT22;32840;52.516;13.294;2023-11-21T06:53:44;7.00;99.90
47090;DHT22;32840;52.516;13.294;2023-11-21T06:56:29;7.10;99.90
47090;DHT22;32840;52.516;13.294;2023-11-21T06:59:14;6.90;99.90
47090;DHT22;32840;52.516;13.294;2023-11-21T07:02:00;6.90;99.90
47090;DHT22;32840;52.516;13.294;2023-11-21T07:04:45;7.00;99.90
47090;DHT22;32840;52.516;13.294;2023-11-21T07:07:31;7.00;99.90
47090;DHT22;32840;52.516;13.294;2023-11-21T07:10:15;6.90;99.90
47090;DHT22;32840;52.516;13.294;2023-11-21T07:13:01;7.00;99.90
47090;DHT22;32840;52.516;13.294;2023-11-21T07:15:46;7.00;99.90
47090;DHT22;32840;52.516;13.294;2023-11-21T07:18:31;6.90;99.90
47090;DHT22;32840;52.516;13.294;2023-11-21T07:21:16;6.90;99.90
47090;DHT22;32840;52.516;13.294;2023-11-21T07:24:01;6.90;99.90
47090;DHT22;32840;52.516;13.294;2023-11-21T07:26:46;7.00;99.90
47090;DHT22;32840;52.516;13.294;2023-11-21T07:29:33;7.00;99.90
47090;DHT22;32840;52.516;13.294;2023-11-21T07:32:18;7.00;99.90
47090;DHT22;32840;52.516;13.294;2023-11-21T07:35:05;7.10;99.90
47090;DHT22;32840;52.516;13.294;2023-11-21T07:37:49;7.00;99.90
47090;DHT22;32840;52.516;13.294;2023-11-21T07:40:34;7.00;99.90
47090;DHT22;32840;52.516;13.294;2023-11-21T07:43:19;7.00;99.90
47090;DHT22;32840;52.516;13.294;2023-11-21T07:46:04;7.00;99.90
47090;DHT22;32840;52.516;13.294;2023-11-21T07:48:49;7.00;99.90
47090;DHT22;32840;52.516;13.294;2023-11-21T07:51:34;7.00;99.90
47090;DHT22;32840;52.516;13.294;2023-11-21T07:54:19;7.00;99.90
47090;DHT22;32840;52.516;13.294;2023-11-21T07:57:04;7.00;99.90
47090;DHT22;32840;52.516;13.294;2023-11-21T07:59:49;7.00;99.90
47090;DHT22;32840;52.516;13.294;2023-11-21T08:02:33;7.00;99.90
47090;DHT22;32840;52.516;13.294;2023-11-21T08:05:19;7.00;99.90
47090;DHT22;32840;52.516;13.294;2023-11-21T08:08:05;7.00;99.90
47090;DHT22;32840;52.516;13.294;2023-11-21T08:10:51;7.10;99.90
47090;DHT22;32840;52.516;13.294;2023-11-21T08:13:42;7.10;99.90
47090;DHT22;32840;52.516;13.294;2023-11-21T08:16:27;7.10;99.90
47090;DHT22;32840;52.516;13.294;2023-11-21T08:19:11;7.20;99.90
47090;DHT22;32840;52.516;13.294;2023-11-21T08:21:56;7.20;99.90
47090;DHT22;32840;52.516;13.294;2023-11-21T08:24:41;7.30;99.90
47090;DHT22;32840;52.516;13.294;2023-11-21T08:27:32;7.20;99.90
47090;DHT22;32840;52.516;13.294;2023-11-21T08:30:17;7.00;99.90
47090;DHT22;32840;52.516;13.294;2023-11-21T08:33:03;7.10;99.90
47090;DHT22;32840;52.516;13.294;2023-11-21T08:35:49;7.10;99.90
47090;DHT22;32840;52.516;13.294;2023-11-21T08:38:34;7.10;99.90
47090;DHT22;32840;52.516;13.294;2023-11-21T08:41:22;7.10;99.90
47090;DHT22;32840;52.516;13.294;2023-11-21T08:44:07;7.20;99.90
47090;DHT22;32840;52.516;13.294;2023-11-21T08:46:52;7.10;99.90
47090;DHT22;32840;52.516;13.294;2023-11-21T08:49:37;7.00;99.90
47090;DHT22;32840;52.516;13.294;2023-11-21T08:52:22;7.10;99.90
47090;DHT22;32840;52.516;13.294;2023-11-21T08:55:08;7.10;99.90
47090;DHT22;32840;52.516;13.294;2023-11-21T08:57:54;7.10;99.90
47090;DHT22;32840;52.516;13.294;2023-11-21T09:00:40;7.00;99.90
47090;DHT22;32840;52.516;13.294;2023-11-21T09:03:26;7.20;99.90
47090;DHT22;32840;52.516;13.294;2023-11-21T09:06:11;7.10;99.90
47090;DHT22;32840;52.516;13.294;2023-11-21T09:08:56;7.10;99.90
47090;DHT22;32840;52.516;13.294;2023-11-21T09:11:41;7.10;99.90
47090;DHT22;32840;52.516;13.294;2023-11-21T09:14:26;7.10;99.90
47090;DHT22;32840;52.516;13.294;2023-11-21T09:17:10;7.00;99.90
47090;DHT22;32840;52.516;13.294;2023-11-21T09:19:55;7.00;99.90
47090;DHT22;32840;52.516;13.294;2023-11-21T09:22:41;7.00;99.90
47090;DHT22;32840;52.516;13.294;2023-11-21T09:25:26;7.00;99.90
47090;DHT22;32840;52.516;13.294;2023-11-21T09:28:13;6.90;99.90
47090;DHT22;32840;52.516;13.294;2023-11-21T09:30:58;7.00;99.90
47090;DHT22;32840;52.516;13.294;2023-11-21T09:33:43;7.00;99.90
47090;DHT22;32840;52.516;13.294;2023-11-21T09:36:28;6.90;99.90
47090;DHT22;32840;52.516;13.294;2023-11-21T09:39:24;6.90;99.90
47090;DHT22;32840;52.516;13.294;2023-11-21T09:42:25;6.90;99.90
47090;DHT22;32840;52.516;13.294;2023-11-21T09:45:31;6.90;99.90
47090;DHT22;32840;52.516;13.294;2023-11-21T09:48:20;6.80;99.90
47090;DHT22;32840;52.516;13.294;2023-11-21T09:51:05;6.90;99.90
47090;DHT22;32840;52.516;13.294;2023-11-21T09:53:51;6.80;99.90
47090;DHT22;32840;52.516;13.294;2023-11-21T09:56:38;6.80;99.90
47090;DHT22;32840;52.516;13.294;2023-11-21T09:59:23;6.90;99.90
47090;DHT22;32840;52.516;13.294;2023-11-21T10:02:08;7.00;99.90
47090;DHT22;32840;52.516;13.294;2023-11-21T10:04:58;7.00;99.90
47090;DHT22;32840;52.516;13.294;2023-11-21T10:07:45;6.90;99.90
47090;DHT22;32840;52.516;13.294;2023-11-21T10:10:32;6.90;99.90
47090;DHT22;32840;52.516;13.294;2023-11-21T10:13:18;7.00;99.90
47090;DHT22;32840;52.516;13.294;2023-11-21T10:16:04;7.00;99.90
47090;DHT22;32840;52.516;13.294;2023-11-21T10:18:52;7.10;99.90
47090;DHT22;32840;52.516;13.294;2023-11-21T10:21:39;7.10;99.90
47090;DHT22;32840;52.516;13.294;2023-11-21T10:24:25;7.10;99.90
47090;DHT22;32840;52.516;13.294;2023-11-21T10:27:11;7.10;99.90
47090;DHT22;32840;52.516;13.294;2023-11-21T10:29:57;7.10;99.90
47090;DHT22;32840;52.516;13.294;2023-11-21T10:32:42;7.00;99.90
47090;DHT22;32840;52.516;13.294;2023-11-21T10:35:45;6.90;99.90
47090;DHT22;32840;52.516;13.294;2023-11-21T10:38:35;6.90;99.90
47090;DHT22;32840;52.516;13.294;2023-11-21T10:41:26;6.80;99.90
47090;DHT22;32840;52.516;13.294;2023-11-21T10:44:13;6.80;99.90
47090;DHT22;32840;52.516;13.294;2023-11-21T10:47:04;6.80;99.90
47090;DHT22;32840;52.516;13.294;2023-11-21T10:49:50;6.90;99.90
47090;DHT22;32840;52.516;13.294;2023-11-21T10:52:44;6.80;99.90
47090;DHT22;32840;52.516;13.294;2023-11-21T10:55:33;6.80;99.90
47090;DHT22;32840;52.516;13.294;2023-11-21T10:58:19;6.70;99.90
47090;DHT22;32840;52.516;13.294;2023-11-21T11:01:06;6.70;99.90
47090;DHT22;32840;52.516;13.294;2023-11-21T11:03:54;6.70;99.90
47090;DHT22;32840;52.516;13.294;2023-11-21T11:06:40;6.70;99.90
47090;DHT22;32840;52.516;13.294;2023-11-21T11:09:29;6.80;99.90
47090;DHT22;32840;52.516;13.294;2023-11-21T11:12:16;6.80;99.90
47090;DHT22;32840;52.516;13.294;2023-11-21T11:15:09;6.70;99.90
47090;DHT22;32840;52.516;13.294;2023-11-21T11:18:09;6.50;99.90
47090;DHT22;32840;52.516;13.294;2023-11-21T11:24:20;6.50;99.90
47090;DHT22;32840;52.516;13.294;2023-11-21T11:27:25;6.40;99.90
47090;DHT22;32840;52.516;13.294;2023-11-21T11:30:54;6.40;99.90
47090;DHT22;32840;52.516;13.294;2023-11-21T11:34:18;6.40;99.90
47090;DHT22;32840;52.516;13.294;2023-11-21T11:37:09;6.40;99.90
47090;DHT22;32840;52.516;13.294;2023-11-21T11:39:54;6.30;99.90
47090;DHT22;32840;52.516;13.294;2023-11-21T11:42:42;6.30;99.90
47090;DHT22;32840;52.516;13.294;2023-11-21T11:45:40;6.30;99.90
47090;DHT22;32840;52.516;13.294;2023-11-21T11:48:28;6.30;99.90
47090;DHT22;32840;52.516;13.294;2023-11-21T11:51:15;6.20;99.90
47090;DHT22;32840;52.516;13.294;2023-11-21T11:54:01;6.20;99.90
47090;DHT22;32840;52.516;13.294;2023-11-21T11:56:47;6.20;99.90
47090;DHT22;32840;52.516;13.294;2023-11-21T12:00:09;6.20;99.90
47090;DHT22;32840;52.516;13.294;2023-11-21T12:02:59;6.30;99.90
47090;DHT22;32840;52.516;13.294;2023-11-21T12:05:46;6.30;99.90
47090;DHT22;32840;52.516;13.294;2023-11-21T12:08:31;6.30;99.90
47090;DHT22;32840;52.516;13.294;2023-11-21T12:11:17;6.30;99.90
47090;DHT22;32840;52.516;13.294;2023-11-21T12:14:03;6.30;99.90
47090;DHT22;32840;52.516;13.294;2023-11-21T12:16:49;6.30;99.90
47090;DHT22;32840;52.516;13.294;2023-11-21T12:19:36;6.30;99.90
47090;DHT22;32840;52.516;13.294;2023-11-21T12:22:25;6.50;99.90
47090;DHT22;32840;52.516;13.294;2023-11-21T12:25:22;6.50;99.90
47090;DHT22;32840;52.516;13.294;2023-11-21T12:28:07;6.50;99.90
47090;DHT22;32840;52.516;13.294;2023-11-21T12:30:52;6.40;99.90
47090;DHT22;32840;52.516;13.294;2023-11-21T12:33:37;6.50;99.90
47090;DHT22;32840;52.516;13.294;2023-11-21T12:36:23;6.40;99.90
47090;DHT22;32840;52.516;13.294;2023-11-21T12:39:08;6.40;99.90
47090;DHT22;32840;52.516;13.294;2023-11-21T12:41:57;6.40;99.90
47090;DHT22;32840;52.516;13.294;2023-11-21T12:44:42;6.40;99.90
47090;DHT22;32840;52.516;13.294;2023-11-21T12:47:30;6.50;99.90
47090;DHT22;32840;52.516;13.294;2023-11-21T12:50:19;6.60;99.90
47090;DHT22;32840;52.516;13.294;2023-11-21T12:53:10;6.60;99.90
47090;DHT22;32840;52.516;13.294;2023-11-21T12:55:58;6.60;99.90
47090;DHT22;32840;52.516;13.294;2023-11-21T12:58:44;6.70;99.90
47090;DHT22;32840;52.516;13.294;2023-11-21T13:01:34;6.60;99.90
47090;DHT22;32840;52.516;13.294;2023-11-21T13:04:19;6.70;99.90
47090;DHT22;32840;52.516;13.294;2023-11-21T13:07:06;6.60;99.90
47090;DHT22;32840;52.516;13.294;2023-11-21T13:10:00;6.40;99.90
47090;DHT22;32840;52.516;13.294;2023-11-21T13:12:51;6.50;99.90
47090;DHT22;32840;52.516;13.294;2023-11-21T13:15:40;6.50;99.90
47090;DHT22;32840;52.516;13.294;2023-11-21T13:18:28;6.50;99.90
47090;DHT22;32840;52.516;13.294;2023-11-21T13:21:14;6.30;99.90
47090;DHT22;32840;52.516;13.294;2023-11-21T13:24:03;6.30;99.90
47090;DHT22;32840;52.516;13.294;2023-11-21T13:26:51;6.30;99.90
47090;DHT22;32840;52.516;13.294;2023-11-21T13:29:37;6.20;99.90
47090;DHT22;32840;52.516;13.294;2023-11-21T13:32:22;6.20;99.90
47090;DHT22;32840;52.516;13.294;2023-11-21T13:35:07;6.20;99.90
47090;DHT22;32840;52.516;13.294;2023-11-21T13:38:04;6.00;99.90
47090;DHT22;32840;52.516;13.294;2023-11-21T13:40:52;6.00;99.90
47090;DHT22;32840;52.516;13.294;2023-11-21T13:43:38;5.90;99.90
47090;DHT22;32840;52.516;13.294;2023-11-21T13:46:23;5.90;99.90
47090;DHT22;32840;52.516;13.294;2023-11-21T13:49:07;5.90;99.90
47090;DHT22;32840;52.516;13.294;2023-11-21T13:51:55;6.00;99.90
47090;DHT22;32840;52.516;13.294;2023-11-21T13:54:40;5.90;99.90
47090;DHT22;32840;52.516;13.294;2023-11-21T13:57:25;5.90;99.90
47090;DHT22;32840;52.516;13.294;2023-11-21T14:00:16;5.90;99.90
47090;DHT22;32840;52.516;13.294;2023-11-21T14:03:19;5.80;99.90
47090;DHT22;32840;52.516;13.294;2023-11-21T14:06:06;5.70;99.90
47090;DHT22;32840;52.516;13.294;2023-11-21T14:08:58;5.70;99.90
47090;DHT22;32840;52.516;13.294;2023-11-21T14:11:43;5.80;99.90
47090;DHT22;32840;52.516;13.294;2023-11-21T14:14:28;5.80;99.90
47090;DHT22;32840;52.516;13.294;2023-11-21T14:17:15;5.80;99.90
47090;DHT22;32840;52.516;13.294;2023-11-21T14:20:02;5.70;99.90
47090;DHT22;32840;52.516;13.294;2023-11-21T14:22:50;5.70;99.90
47090;DHT22;32840;52.516;13.294;2023-11-21T14:25:47;5.70;99.90
47090;DHT22;32840;52.516;13.294;2023-11-21T14:28:39;5.60;99.90
47090;DHT22;32840;52.516;13.294;2023-11-21T14:31:24;5.60;99.90
47090;DHT22;32840;52.516;13.294;2023-11-21T14:34:09;5.60;99.90
47090;DHT22;32840;52.516;13.294;2023-11-21T14:36:55;5.50;99.90
47090;DHT22;32840;52.516;13.294;2023-11-21T14:39:40;5.50;99.90
47090;DHT22;32840;52.516;13.294;2023-11-21T14:42:29;5.40;99.90
47090;DHT22;32840;52.516;13.294;2023-11-21T14:45:14;5.50;99.90
47090;DHT22;32840;52.516;13.294;2023-11-21T14:48:04;5.50;99.90
47090;DHT22;32840;52.516;13.294;2023-11-21T14:50:49;5.40;99.90
47090;DHT22;32840;52.516;13.294;2023-11-21T14:53:46;5.40;99.90
47090;DHT22;32840;52.516;13.294;2023-11-21T14:56:38;5.50;99.90
47090;DHT22;32840;52.516;13.294;2023-11-21T14:59:24;5.30;99.90
47090;DHT22;32840;52.516;13.294;2023-11-21T15:02:10;5.30;99.90
47090;DHT22;32840;52.516;13.294;2023-11-21T15:05:05;5.10;99.90
47090;DHT22;32840;52.516;13.294;2023-11-21T15:07:50;5.20;99.90
47090;DHT22;32840;52.516;13.294;2023-11-21T15:10:41;5.10;99.90
47090;DHT22;32840;52.516;13.294;2023-11-21T15:13:37;5.10;99.90
47090;DHT22;32840;52.516;13.294;2023-11-21T15:16:28;5.20;99.90
47090;DHT22;32840;52.516;13.294;2023-11-21T15:19:12;5.10;99.90
47090;DHT22;32840;52.516;13.294;2023-11-21T15:22:03;5.20;99.90
47090;DHT22;32840;52.516;13.294;2023-11-21T15:24:48;5.30;99.90
47090;DHT22;32840;52.516;13.294;2023-11-21T15:27:33;5.30;99.90
47090;DHT22;32840;52.516;13.294;2023-11-21T15:30:18;5.30;99.90
47090;DHT22;32840;52.516;13.294;2023-11-21T15:33:08;5.10;99.90
47090;DHT22;32840;52.516;13.294;2023-11-21T15:35:53;5.10;99.90
47090;DHT22;32840;52.516;13.294;2023-11-21T15:38:39;4.90;99.90
47090;DHT22;32840;52.516;13.294;2023-11-21T15:41:26;5.00;99.90
47090;DHT22;32840;52.516;13.294;2023-11-21T15:44:12;5.10;99.90
47090;DHT22;32840;52.516;13.294;2023-11-21T15:46:59;5.20;99.90
47090;DHT22;32840;52.516;13.294;2023-11-21T15:49:44;5.30;99.90
47090;DHT22;32840;52.516;13.294;2023-11-21T15:52:32;5.30;99.90
47090;DHT22;32840;52.516;13.294;2023-11-21T15:55:19;5.40;99.90
47090;DHT22;32840;52.516;13.294;2023-11-21T15:58:04;5.40;99.90
47090;DHT22;32840;52.516;13.294;2023-11-21T16:00:50;5.30;99.90
47090;DHT22;32840;52.516;13.294;2023-11-21T16:03:37;5.40;99.90
47090;DHT22;32840;52.516;13.294;2023-11-21T16:06:22;5.20;99.90
47090;DHT22;32840;52.516;13.294;2023-11-21T16:09:07;5.20;99.90
47090;DHT22;32840;52.516;13.294;2023-11-21T16:12:01;5.10;99.90
47090;DHT22;32840;52.516;13.294;2023-11-21T16:14:49;5.20;99.90
47090;DHT22;32840;52.516;13.294;2023-11-21T16:17:35;5.20;99.90
47090;DHT22;32840;52.516;13.294;2023-11-21T16:20:28;5.20;99.90
47090;DHT22;32840;52.516;13.294;2023-11-21T16:23:16;5.10;99.90
47090;DHT22;32840;52.516;13.294;2023-11-21T16:26:24;5.10;99.90
47090;DHT22;32840;52.516;13.294;2023-11-21T16:29:08;5.10;99.90
47090;DHT22;32840;52.516;13.294;2023-11-21T16:31:53;5.10;99.90
47090;DHT22;32840;52.516;13.294;2023-11-21T16:34:39;5.10;99.90
47090;DHT22;32840;52.516;13.294;2023-11-21T16:37:24;5.10;99.90
47090;DHT22;32840;52.516;13.294;2023-11-21T16:40:12;5.00;99.90
47090;DHT22;32840;52.516;13.294;2023-11-21T16:42:57;5.10;99.90
47090;DHT22;32840;52.516;13.294;2023-11-21T16:45:43;5.00;99.90
47090;DHT22;32840;52.516;13.294;2023-11-21T16:48:35;5.00;99.90
47090;DHT22;32840;52.516;13.294;2023-11-21T16:51:22;5.00;99.90
47090;DHT22;32840;52.516;13.294;2023-11-21T16:54:08;5.00;99.90
47090;DHT22;32840;52.516;13.294;2023-11-21T16:56:56;5.10;99.90
47090;DHT22;32840;52.516;13.294;2023-11-21T16:59:41;5.10;99.90
47090;DHT22;32840;52.516;13.294;2023-11-21T17:02:26;5.10;99.90
47090;DHT22;32840;52.516;13.294;2023-11-21T17:05:11;5.10;99.90
47090;DHT22;32840;52.516;13.294;2023-11-21T17:07:57;5.00;99.90
47090;DHT22;32840;52.516;13.294;2023-11-21T17:10:42;5.00;99.90
47090;DHT22;32840;52.516;13.294;2023-11-21T17:13:32;5.00;99.90
47090;DHT22;32840;52.516;13.294;2023-11-21T17:16:18;5.00;99.90
47090;DHT22;32840;52.516;13.294;2023-11-21T17:19:05;5.10;99.90
47090;DHT22;32840;52.516;13.294;2023-11-21T17:21:51;5.10;99.90
47090;DHT22;32840;52.516;13.294;2023-11-21T17:24:39;4.90;99.90
47090;DHT22;32840;52.516;13.294;2023-11-21T17:27:28;4.90;99.90
47090;DHT22;32840;52.516;13.294;2023-11-21T17:30:15;4.90;99.90
47090;DHT22;32840;52.516;13.294;2023-11-21T17:33:02;4.90;99.90
47090;DHT22;32840;52.516;13.294;2023-11-21T17:35:51;4.90;99.90
47090;DHT22;32840;52.516;13.294;2023-11-21T17:38:40;4.90;99.90